Pol Sánchez

Olheiro-Chefe - Girona
4 Abr 2027
Domingo
Processo

Personalidade

Adaptabilidade (18) Ambição (19) Controvérsia (20) Lealdade (5) Pressão (8) Profissionalismo (15) Espírito Esportivo (13) Temperamento (5)

Perfil

Estilo de Treinamento Democrático
Licença Nacional A
Determinação 8
Gestão de Pessoas 9
Motivação 8
Disciplina 7
Satisfação no Trabalho
100%
Fadiga
0%
Função Olheiro-Chefe
Salário 40.5K p/s
Contrato 14.03.2028

Desempenho

Comportamento Bom
Eficácia do Treinamento
51%
Desenvolvimento do Jogador
50%
Prevenção de Lesões
40%
Implementação Tática
60%

Eventos Recentes

Participou de uma reunião de recrutamento agora
Participou de uma reunião de recrutamento agora
Avaliou um jogador agora
Avaliou um jogador agora
Avaliou um jogador agora
Avaliou um jogador agora
Avaliou um jogador agora
Avaliou um jogador 7d atrás

Monitorando agora

130
Jogador Clube Status Habilidade Confiança Observado Última observação Último voto
Sergio Quintero La Equidad Ativo 138 / 137 40% 3 03.04.2027 -
Chris Rigg Sunderland Ativo 132 / 146 40% 2 03.04.2027 -
Nacer Tielemans Mouscron Ativo 127 / 140 40% 4 02.04.2027 -
Amaury Morales Tigres Ativo 99 / 119 40% 1 02.04.2027 -
Enzo Cardozo Almirante Brown Ativo 101 / 111 40% 1 02.04.2027 -
Matías Argüello Olimpia Ativo 99 / 105 40% 1 01.04.2027 -
Lucas Agazzi Defensor Sporting Ativo 127 / 122 40% 2 31.03.2027 -
Axel Tape Bayer Leverkusen Ativo 115 / 131 40% 1 31.03.2027 -
André Miranda Porto Ativo 91 / 108 40% 1 30.03.2027 -
Ruan Alanyaspor Ativo 145 / 121 40% 1 30.03.2027 -
Eliás Montiel Pachuca Ativo 144 / 130 40% 4 27.03.2027 -
Dylan Gorosito Boca Juniors Ativo 101 / 113 40% 1 27.03.2027 -
Riyad Idrissi Cagliari Ativo 123 / 124 40% 2 26.03.2027 -
Camilo Rey Domenech Boca Juniors Ativo 119 / 124 40% 1 26.03.2027 -
Khalis Merah LOSC Lille Ativo 124 / 132 40% 1 25.03.2027 -
Santiago Daniele Chacarita Juniors Ativo 93 / 110 40% 2 24.03.2027 -
Augusto Bando Ascoli Ativo 94 / 117 40% 1 24.03.2027 -
Dehmaine Tabibou FC Nantes Ativo 137 / 135 40% 1 24.03.2027 -
Eduardo Fernandes Benfica Ativo 112 / 104 40% 1 24.03.2027 -
Saïmon Bouabré Al-Hilal Ativo 136 / 138 40% 1 21.03.2027 -
Wisdom Mike Club Brugge Ativo 100 / 124 40% 1 21.03.2027 -
Pablo Aguiar Gimnasia La Plata Ativo 112 / 109 40% 2 19.03.2027 -
Thiago Silvero River Plate Ativo 112 / 125 40% 1 19.03.2027 -
Vanja Dragojević Partizan Ativo 101 / 124 40% 1 18.03.2027 -
Cemran Dansin Orlando Pirates Ativo 124 / 121 40% 2 16.03.2027 -
Sabil Hansen Randers Ativo 87 / 108 40% 1 16.03.2027 -
Joaquin Seys Club Brugge Ativo 125 / 128 40% 2 15.03.2027 -
Siyabonga Mokoena SuperSport United Ativo 93 / 100 40% 2 15.03.2027 -
Borna Knezović Casarano Ativo 114 / 106 40% 2 14.03.2027 -
Ignacio Perruzzi San Lorenzo Ativo 120 / 133 40% 1 12.03.2027 -
Román Herrera Atlanta Ativo 101 / 104 40% 1 09.03.2027 -
Francisco Lencinas Patronato Ativo 97 / 108 40% 1 07.03.2027 -
Martim Cunha Porto Ativo 98 / 110 40% 1 07.03.2027 -
Gorka Gorosabel Real Sociedad Relatório pronto 106 / 112 67% 1 06.03.2027 -
Mohamadou Kanté West Ham United Ativo 103 / 122 40% 1 06.03.2027 -
Veljko Radosavljević Cukaricki Ativo 119 / 110 40% 1 05.03.2027 -
Bryan Caicedo Leones Ativo 95 / 96 40% 1 03.03.2027 -
Facundo Herrera Boca Juniors Ativo 102 / 112 40% 1 02.03.2027 -
Vinícius Lopes Santa Clara Ativo 111 / 126 40% 1 18.01.2027 -
Brayan Gil Baltika Ativo 128 / 118 40% 1 18.01.2027 -
Jacques Siwe Rubin Ativo 98 / 124 40% 1 17.01.2027 -
Yanis Begraoui Estoril Praia Ativo 135 / 128 40% 1 17.01.2027 -
Ousmane Camara Castellón Ativo 113 / 116 40% 2 15.01.2027 -
Ignacio Russo Tigre Ativo 116 / 125 40% 1 15.01.2027 -
Marco Rossello Probiy Ativo 82 / 67 40% 1 14.01.2027 -
Richard Koné Queens Park Rangers Ativo 120 / 118 40% 2 12.01.2027 -
Roberto de la Rosa Monterrey Ativo 130 / 120 40% 1 12.01.2027 -
Tamerlan Musaev CSKA Moscow Ativo 109 / 120 40% 1 11.01.2027 -
Luiz Henrique Zenit Perdido 142 / 143 68% 1 01.01.2027 -
Marvin Keller Young Boys Perdido 136 / 137 67% 1 01.01.2027 -
Mao Hosoya Corinthians Relatório pronto 134 / 135 67% 1 01.01.2027 -
Sebastián Córdova Pumas UNAM Ativo 143 / 129 40% 1 31.12.2026 -
Brian Gutiérrez Guadalajara Ativo 133 / 139 40% 1 31.12.2026 -
Guilherme Fernandes Córdoba Ativo 135 / 137 40% 9 30.12.2026 -
Andreas Jungdal Westerlo Ativo 118 / 120 40% 1 30.12.2026 -
Dmytro Riznyk Shakhtar Ativo 127 / 131 40% 4 29.12.2026 -
Rodrigo Huescas FC Copenhagen Ativo 133 / 141 40% 3 28.12.2026 -
Oleksandr Saputin Zorya Ativo 127 / 126 40% 2 28.12.2026 -
Leo Kokubo Sint-Truiden Ativo 112 / 117 40% 1 28.12.2026 -
Enzo Vázquez Central Norte Ativo 115 / 112 40% 5 25.12.2026 -
Grégoire Coudert Burnley Ativo 121 / 130 40% 3 25.12.2026 -
Hugo Souza Corinthians Ativo 147 / 132 40% 2 24.12.2026 -
Gabriel Brazão Santos Ativo 142 / 132 40% 2 24.12.2026 -
Luciano Jachfe Nueva Chicago Ativo 123 / 119 40% 5 23.12.2026 -
Iñaki Peña Panathinaikos Ativo 147 / 151 40% 3 22.12.2026 -
Lazar Carević Famalicao Ativo 119 / 123 40% 1 22.12.2026 -
Michael Cooper Sheffield United Ativo 126 / 122 40% 2 21.12.2026 -
Sem Westerveld Zaragoza Ativo 109 / 124 40% 2 20.12.2026 -
Danilo Botafogo Ativo 128 / 134 40% 1 17.12.2026 -
César Ibáñez Huracán Ativo 123 / 120 40% 1 17.12.2026 -
Nahuel Galardi Maipú Ativo 118 / 108 40% 2 16.12.2026 -
Exequiel Zeballos Boca Juniors Ativo 124 / 128 40% 1 16.12.2026 -
Felipe Zenobio Tigre Ativo 127 / 123 40% 6 15.12.2026 -
Ramón Juárez Club America Ativo 148 / 133 40% 2 13.12.2026 -
Santiago González Tigre Ativo 130 / 130 40% 2 13.12.2026 -
Israel Reyes Club America Ativo 133 / 127 40% 2 11.12.2026 -
Mauro Silveira Junior Ativo 118 / 123 40% 1 11.12.2026 -
Sebastián Cáceres Club America Ativo 145 / 143 40% 1 11.12.2026 -
Radek Vítek Middlesbrough Ativo 133 / 136 40% 4 08.12.2026 -
Marcos López San Martín Ativo 128 / 128 40% 1 07.12.2026 -
Gedson Fernandes Spartak Moscow Ativo 145 / 130 40% 2 06.12.2026 -
Romelu Mignolet Mouscron Ativo 128 / 118 40% 1 06.12.2026 -
Ştefan Târnovanu FCSB Ativo 137 / 128 40% 2 03.12.2026 -
Anthony Racioppi Sion Ativo 120 / 119 40% 2 30.11.2026 -
Juan Diego Castillo Vitoria Guimaraes Ativo 111 / 122 40% 2 30.11.2026 -
Chris Brady Chicago Fire Ativo 121 / 137 40% 2 27.11.2026 -
Axel Alderweireld KV Oostende Ativo 152 / 141 40% 4 26.11.2026 -
Luciano Gondou CSKA Moscow Ativo 132 / 129 40% 1 26.11.2026 -
Joaquim Tigres Ativo 140 / 121 40% 3 23.11.2026 -
Tomás Silva Platense Ativo 117 / 122 40% 1 23.11.2026 -
Ozziel Herrera Tigres Ativo 133 / 134 40% 1 23.11.2026 -
Omar Campos Cruz Azul Ativo 106 / 125 40% 2 21.11.2026 -
Agustín Lastra Estudiantes Ativo 106 / 106 40% 1 19.11.2026 -
Gonzalo Crettaz NEC Ativo 126 / 130 40% 1 16.11.2026 -
Fabrizio Correa Juventud Ativo 115 / 117 40% 1 16.11.2026 -
Jamie Cumming Oxford United Ativo 118 / 127 40% 6 13.11.2026 -
John Pulskamp Sporting Kansas City Ativo 122 / 110 40% 3 12.11.2026 -
Fabian de Keijzer Heracles Ativo 118 / 115 40% 1 12.11.2026 -
Iván Martín Racing Club Ativo 149 / 140 40% 1 12.11.2026 -
Sébastien Durand Tours Ativo 144 / 135 40% 1 12.11.2026 -
Jakub Stolarczyk Leicester City Ativo 137 / 128 40% 1 10.11.2026 -
César Araújo Tigres Ativo 119 / 120 40% 1 08.11.2026 -
Luka Gavran Toronto FC Ativo 120 / 107 40% 1 08.11.2026 -
Nicolás Sumavil Platense Ativo 119 / 120 40% 4 03.11.2026 -
Carl Rushworth Coventry City Ativo 143 / 130 40% 3 03.11.2026 -
Pascal Loretz Luzern Ativo 111 / 126 40% 1 02.11.2026 -
Anthony Patterson Wrexham Ativo 124 / 123 40% 4 01.11.2026 -
Kevin Lomónaco Independiente Ativo 129 / 127 40% 1 31.10.2026 -
Jesús Orozco Chiquete Cruz Azul Ativo 146 / 121 40% 1 31.10.2026 -
Nahuel Herrera Penarol Ativo 134 / 133 40% 1 30.10.2026 -
Pablo Ramón Racing Club Ativo 133 / 125 40% 1 29.10.2026 -
Santiago Núñez Estudiantes Ativo 132 / 123 40% 1 29.10.2026 -
Matthieu Epolo Standard Liege Ativo 112 / 130 40% 1 27.10.2026 -
Igor Nikić Mirandés Ativo 128 / 123 40% 2 23.10.2026 -
Mamour N'Diaye Sarpsborg 08 Ativo 92 / 129 40% 1 22.10.2026 -
Federico Pereira Toluca Ativo 126 / 139 40% 1 19.10.2026 -
Diego Conde Villarreal Ativo 137 / 144 40% 3 08.10.2026 -
Joaquín Enrico San Telmo Ativo 101 / 105 40% 1 05.10.2026 -
Santino Barbi Talleres Ativo 121 / 113 40% 2 04.10.2026 -
Víctor Guzmán Monterrey Ativo 121 / 136 40% 1 03.10.2026 -
Kevin Álvarez Club America Ativo 115 / 122 40% 1 03.10.2026 -
Matías Dufour Sportivo Trinidense Ativo 96 / 109 40% 1 01.10.2026 -
Patrick Schulte Columbus Crew Ativo 133 / 124 40% 1 23.09.2026 -
Arijanet Murić Sassuolo Ativo 138 / 131 40% 1 22.09.2026 -
Carlos Miguel Palmeiras Ativo 120 / 128 40% 1 20.09.2026 -
Luiz Júnior Villarreal Ativo 138 / 147 40% 1 17.09.2026 -
Manuel Roffo Cerro Porteno Ativo 136 / 122 40% 1 09.09.2026 -
Leo Román Deportivo La Coruña Ativo 148 / 140 40% 1 07.09.2026 Mais informações
Orbelín Pineda Monterrey Ativo 116 / 133 40% 1 04.08.2026 -
Stefano Turati Sassuolo Ativo 123 / 127 40% 1 03.08.2026 -